Jamestown Regional Airport Jamestown US
ICAO: KJMS
IATA: JMS
Category: Medium
Scheduled Services: Yes

Elevation: 1500 ft
TransAlt. 18000 ft.

Airport Communications:
ASOS:118.425
MINNEAPOLIS CNTR:124.2
GRAND FORKS RDO:122.2
CTAF/UNICOM:123

KJMS Zoom In..

If you have problems with the map follow the link
https://www.worldairports.se/pages/airport.php?
ICAO=KJMS

Runways:

(A) RW 04 length 5750 ft width 75 ft
---- / hdg 37

(B) RW 13 length 6502 ft width 100 ft
---- / hdg 127

(C) RW 22 length 5750 ft width 75 ft
---- / hdg 217

(D) RW 31 length 6502 ft width 100 ft
ILS 109.30 / hdg 307

Location; KJMS
Day. 18 / Time. 20.56 Zulu
* Altimeter: 30.34
* Temperature: -17° c. -1.4°f.
* Wind from: 020° Speed 07 kn.
Dewpoint: -23° c.
Visibility: 10 Statute Miles.
Clouds: Broken 8000 ft.
Clouds: Overcast 9000 ft.

KJMS 182056Z AUTO 02007KT 10SM BKN080 OVC090 M17/M23 A3034 RMK AO2 SLP317 T11721233 53003


Wind From 020°
Speed 07 kn.

 
 
jpsmedia.com for Web Design worldairports.se 2019   terms of use